CYXQ

Beaver Creek Airport

Beaver Creek, , Canada
METAR CYXQ 092100Z VRB02KT 30SM SCT130 BKN180 BKN240 M09/M11 A2895 RMK AC3AC3CI1 SLP851
Observed Flight Rules
Dec-9 @ 21:00 UTC (an hour ago) Visual Flight Rules
Wind Visibility Clouds
Variable at 2 knots 30 miles
  • Scattered at 13,000' AGL
  • Broken at 18,000' AGL
  • Broken at 24,000' AGL
Temperatures Readings
Current -9°C / 16°F
Dewpoint -11°C / 12°F
Humidity 86%
Altimeter 28.95" Hg
Pressure 985.1 hPa
Elevation 649
METAR CYXQ 092100Z VRB02KT 30SM SCT130 BKN180 BKN240 M09/M11 A2895 RMK AC3AC3CI1 SLP851
Observed Flight Rules
Dec-9 @ 21:00 UTC
(an hour ago)
VFR
Wind Visibility
Variable at 2 knots 30 miles
Clouds
  • Scattered at 13,000' AGL
  • Broken at 18,000' AGL
  • Broken at 24,000' AGL
Temperature Dewpoint
-9°C / 16°F -11°C / 12°F
Humidity Altimeter Pressure
86% 28.95" Hg 985.1 hPa